Time;durP1;ratioP1;P1;durP2;ratioP2;P2;SDS_P1;SDS_P2;PMS_P1;PMS_P2;Temp;Humidity;BMP_temperature;BMP_pressure;BME280_temperature;BME280_humidity;BME280_pressure;Samples;Min_cycle;Max_cycle;Signal;HPM_P1;HPM_P2
2022/10/15 00:00:23;;;;;;;70.37;41.75;;;;;;;10.46;80.82;100039.51;2011868;85;33050;-73
2022/10/15 00:03:26;;;;;;;69.80;41.73;;;;;;;10.53;80.93;100027.50;2026399;86;27685;-67
2022/10/15 00:06:28;;;;;;;67.70;38.80;;;;;;;10.60;80.89;100021.34;2044583;85;27646;-64
2022/10/15 00:09:30;;;;;;;65.30;39.23;;;;;;;10.67;80.82;100020.06;2024351;86;29085;-65
2022/10/15 00:12:32;;;;;;;61.83;37.13;;;;;;;10.73;80.79;100015.72;2071480;85;31560;-63
2022/10/15 00:15:36;;;;;;;57.85;37.45;;;;;;;10.78;80.72;100018.99;2038916;85;33365;-62
2022/10/15 00:18:39;;;;;;;57.65;35.25;;;;;;;10.82;80.56;100023.73;2062401;85;30189;-70
2022/10/15 00:21:40;;;;;;;52.38;32.45;;;;;;;10.83;80.52;100016.08;2041117;85;27896;-69
2022/10/15 00:24:42;;;;;;;54.70;32.78;;;;;;;10.83;80.39;100005.36;2032149;86;29109;-65
2022/10/15 00:27:43;;;;;;;49.30;31.55;;;;;;;10.83;80.31;100010.72;2024440;86;32270;-64
2022/10/15 00:30:44;;;;;;;49.48;30.52;;;;;;;10.82;80.15;100006.77;2027334;86;33292;-63
2022/10/15 00:33:47;;;;;;;50.67;31.93;;;;;;;10.79;80.13;100002.45;2018849;86;29754;-65
2022/10/15 00:36:50;;;;;;;51.20;32.85;;;;;;;10.75;80.04;99992.85;2029238;86;27658;-63
2022/10/15 00:39:51;;;;;;;55.98;34.70;;;;;;;10.71;79.94;99996.18;2024586;86;29923;-65
2022/10/15 00:42:52;;;;;;;60.35;36.38;;;;;;;10.65;79.89;99996.51;2021233;86;32271;-65
2022/10/15 00:45:54;;;;;;;57.90;37.73;;;;;;;10.60;79.99;99989.19;2035884;86;33758;-62
2022/10/15 00:49:22;;;;;;;80.28;45.08;;;;;;;10.54;80.03;99982.36;2057248;85;31485;-66
2022/10/15 00:52:28;;;;;;;77.27;43.58;;;;;;;10.51;80.14;99987.88;2008561;86;27872;-64
2022/10/15 00:55:36;;;;;;;59.05;38.78;;;;;;;10.43;80.08;99982.94;2067936;85;28716;-64
2022/10/15 00:58:38;;;;;;;59.55;37.65;;;;;;;10.39;80.10;99986.75;2038909;85;31026;-70
2022/10/15 01:01:40;;;;;;;61.88;36.90;;;;;;;10.34;80.00;99989.62;2041833;85;33038;-65
2022/10/15 01:04:41;;;;;;;52.33;33.58;;;;;;;10.30;80.05;99989.88;2006082;85;29391;-64
2022/10/15 01:07:42;;;;;;;56.13;34.40;;;;;;;10.24;79.90;99983.05;2037425;86;27702;-63
2022/10/15 01:11:01;;;;;;;54.80;33.02;;;;;;;10.16;79.99;99967.39;2071731;84;29094;-64
2022/10/15 01:14:23;;;;;;;60.25;36.08;;;;;;;10.11;80.28;99968.59;2064316;85;31067;-65
2022/10/15 01:17:49;;;;;;;54.38;33.58;;;;;;;10.03;80.22;99971.19;2050225;85;33044;-68
2022/10/15 01:21:06;;;;;;;56.90;35.95;;;;;;;9.97;80.12;99973.33;2047325;86;29806;-67
2022/10/15 01:24:31;;;;;;;56.15;34.43;;;;;;;9.92;80.32;99966.88;2010696;86;28149;-66
2022/10/15 01:27:45;;;;;;;57.88;36.53;;;;;;;9.89;80.38;99963.02;2025351;86;28725;-66
2022/10/15 01:30:51;;;;;;;55.00;35.58;;;;;;;9.84;80.36;99959.74;2012578;86;31426;-65
2022/10/15 01:33:58;;;;;;;51.77;33.70;;;;;;;9.79;80.32;99950.59;2015518;86;33375;-64
2022/10/15 01:37:19;;;;;;;53.70;34.27;;;;;;;9.75;80.50;99940.14;2045947;86;29796;-64
2022/10/15 01:40:30;;;;;;;52.62;33.63;;;;;;;9.71;80.55;99942.97;2022017;86;27703;-66
2022/10/15 01:43:39;;;;;;;56.63;35.80;;;;;;;9.66;80.84;99943.70;2019615;86;29585;-64
2022/10/15 01:47:01;;;;;;;49.53;33.58;;;;;;;9.62;80.92;99948.80;2024695;85;31049;-67
2022/10/15 01:50:05;;;;;;;55.28;33.38;;;;;;;9.61;81.17;99938.17;2071299;85;33409;-62
2022/10/15 01:53:07;;;;;;;49.38;32.25;;;;;;;9.56;81.27;99931.27;2024516;86;37415;-66
2022/10/15 01:56:13;;;;;;;51.63;32.10;;;;;;;9.55;81.70;99926.87;2013003;86;27741;-66
2022/10/15 01:59:24;;;;;;;48.20;31.17;;;;;;;9.52;81.38;99913.65;2007580;86;28731;-64
2022/10/15 02:02:25;;;;;;;47.80;31.48;;;;;;;9.52;81.49;99919.45;2026338;85;30965;-65
2022/10/15 02:05:31;;;;;;;50.20;30.17;;;;;;;9.51;81.50;99921.27;2005878;86;33109;-65
2022/10/15 02:08:40;;;;;;;48.42;31.62;;;;;;;9.49;81.79;99915.63;1995151;86;30211;-64
2022/10/15 02:12:11;;;;;;;46.92;30.10;;;;;;;9.47;81.73;99908.15;2056263;84;27742;-67
2022/10/15 02:15:36;;;;;;;49.08;31.20;;;;;;;9.46;81.82;99910.43;2045837;85;29972;-64
2022/10/15 02:19:05;;;;;;;44.77;29.95;;;;;;;9.44;81.94;99902.47;2042091;85;31619;-69
2022/10/15 02:22:33;;;;;;;44.77;30.37;;;;;;;9.42;81.99;99897.70;2051887;85;34163;-72
2022/10/15 02:25:38;;;;;;;45.12;29.87;;;;;;;9.40;82.16;99895.09;2022319;86;30701;-67
2022/10/15 02:28:46;;;;;;;41.25;28.17;;;;;;;9.39;82.33;99892.50;2012065;86;27879;-72
2022/10/15 02:31:49;;;;;;;47.23;30.82;;;;;;;9.40;82.51;99884.88;2027723;86;28752;-67
2022/10/15 02:34:51;;;;;;;47.83;29.48;;;;;;;9.40;82.56;99882.20;2026563;86;31884;-62
2022/10/15 02:37:54;;;;;;;46.23;30.00;;;;;;;9.40;82.54;99882.20;2028012;86;32988;-66
2022/10/15 02:40:55;;;;;;;49.80;31.40;;;;;;;9.39;82.71;99879.98;2011730;86;29444;-65
2022/10/15 02:43:57;;;;;;;49.80;32.70;;;;;;;9.39;82.58;99875.98;2026918;86;27706;-70
2022/10/15 02:46:59;;;;;;;49.67;31.27;;;;;;;9.39;82.49;99867.95;2040676;86;30015;-66
2022/10/15 02:50:01;;;;;;;53.00;32.80;;;;;;;9.37;82.50;99860.48;2031567;85;31444;-69
2022/10/15 02:53:03;;;;;;;46.63;30.85;;;;;;;9.37;82.87;99859.14;2043362;85;33008;-62
2022/10/15 02:56:04;;;;;;;53.13;30.85;;;;;;;9.36;82.70;99861.91;2030883;85;29701;-66
2022/10/15 02:59:06;;;;;;;46.98;31.75;;;;;;;9.35;82.95;99866.86;2021659;86;27812;-69
2022/10/15 03:02:07;;;;;;;54.08;32.63;;;;;;;9.34;82.99;99871.81;2003987;85;29317;-71
2022/10/15 03:05:09;;;;;;;52.23;31.90;;;;;;;9.35;83.01;99865.04;2012310;86;31225;-71
2022/10/15 03:08:10;;;;;;;49.93;31.52;;;;;;;9.36;83.10;99861.91;2022878;86;34169;-69
2022/10/15 03:11:12;;;;;;;48.83;31.55;;;;;;;9.37;83.14;99855.63;2047853;85;29129;-66
2022/10/15 03:14:13;;;;;;;49.13;31.42;;;;;;;9.37;83.33;99840.43;2006761;86;27719;-66
2022/10/15 03:17:15;;;;;;;49.42;32.23;;;;;;;9.37;83.47;99824.39;2056116;85;29534;-71
2022/10/15 03:20:16;;;;;;;48.17;29.85;;;;;;;9.40;83.29;99834.08;2020040;85;32423;-67
2022/10/15 03:23:18;;;;;;;47.93;31.00;;;;;;;9.40;83.43;99835.42;2025827;85;32736;-68
2022/10/15 03:26:19;;;;;;;48.45;30.80;;;;;;;9.42;83.33;99837.05;2036611;86;29744;-69
2022/10/15 03:29:20;;;;;;;46.95;30.30;;;;;;;9.43;83.62;99837.94;2023380;86;28226;-70
2022/10/15 03:32:21;;;;;;;47.85;30.15;;;;;;;9.45;83.65;99838.69;2032819;86;29150;-71
2022/10/15 03:35:22;;;;;;;44.75;30.40;;;;;;;9.46;83.76;99833.73;2050548;86;32273;-68
2022/10/15 03:38:23;;;;;;;47.75;31.02;;;;;;;9.49;83.69;99828.23;2045485;86;33129;-67
2022/10/15 03:41:25;;;;;;;45.70;30.15;;;;;;;9.52;83.86;99823.19;2020898;87;29692;-68
2022/10/15 03:44:26;;;;;;;53.83;31.48;;;;;;;9.54;84.00;99820.84;2014697;86;28426;-70
2022/10/15 03:47:27;;;;;;;50.63;31.80;;;;;;;9.58;83.92;99826.88;2027108;85;29094;-70
2022/10/15 03:50:29;;;;;;;56.40;34.50;;;;;;;9.60;83.83;99811.63;2035637;85;31444;-68
2022/10/15 03:53:30;;;;;;;55.88;34.43;;;;;;;9.62;83.96;99811.08;2033365;85;33928;-66
2022/10/15 03:56:31;;;;;;;51.05;33.70;;;;;;;9.65;83.80;99812.25;2068830;85;30546;-65
2022/10/15 03:59:33;;;;;;;62.78;33.25;;;;;;;9.67;83.89;99807.69;2070071;84;27943;-68
2022/10/15 04:02:34;;;;;;;53.90;32.55;;;;;;;9.69;83.80;99809.78;2065609;84;28589;-74
2022/10/15 04:05:36;;;;;;;53.15;33.23;;;;;;;9.73;84.03;99818.53;2069441;85;31086;-72
2022/10/15 04:08:37;;;;;;;49.85;31.10;;;;;;;9.73;83.85;99811.35;2075365;85;33793;-67
2022/10/15 04:11:39;;;;;;;53.42;33.33;;;;;;;9.76;83.83;99820.16;2069952;84;29710;-68
2022/10/15 04:14:40;;;;;;;50.83;32.80;;;;;;;9.79;83.95;99809.30;2042899;86;27527;-69
2022/10/15 04:17:41;;;;;;;54.15;32.98;;;;;;;9.80;83.93;99805.68;2050065;86;28870;-72
2022/10/15 04:20:42;;;;;;;53.02;33.02;;;;;;;9.82;83.90;99808.65;2073103;85;31055;-70
2022/10/15 04:23:44;;;;;;;53.80;31.33;;;;;;;9.84;83.85;99803.23;2068509;84;33843;-64
2022/10/15 04:26:45;;;;;;;50.08;30.88;;;;;;;9.84;83.97;99797.39;2087069;84;29740;-65
2022/10/15 04:29:48;;;;;;;52.03;32.23;;;;;;;9.85;84.25;99794.23;2072776;84;27620;-69
2022/10/15 04:32:52;;;;;;;49.20;33.73;;;;;;;9.84;83.92;99792.05;2073770;84;29564;-64
2022/10/15 04:36:05;;;;;;;53.87;33.77;;;;;;;9.86;83.92;99787.48;2079965;84;31411;-63
2022/10/15 04:39:07;;;;;;;50.83;32.13;;;;;;;9.88;83.83;99785.59;2079241;85;32926;-68
2022/10/15 04:42:08;;;;;;;50.83;31.85;;;;;;;9.88;84.08;99788.26;2083588;84;29362;-67
2022/10/15 04:45:09;;;;;;;51.77;31.87;;;;;;;9.90;83.94;99790.84;2080765;84;27793;-63
2022/10/15 04:48:11;;;;;;;50.30;30.50;;;;;;;9.90;83.92;99798.02;2054293;85;28343;-65
2022/10/15 04:51:32;;;;;;;57.35;34.25;;;;;;;9.92;83.97;99797.46;2051993;84;31047;-72
2022/10/15 04:54:26;;;;;;;55.98;32.05;;;;;;;9.94;84.00;99804.90;2038620;86;28005;-70
2022/10/15 04:57:27;;;;;;;53.38;31.35;;;;;;;9.94;83.98;99796.88;2039126;86;30375;-70
2022/10/15 05:00:32;;;;;;;54.75;32.30;;;;;;;9.97;83.93;99799.39;2043838;86;27826;-73
2022/10/15 05:03:34;;;;;;;53.17;32.67;;;;;;;9.98;83.90;99795.30;2036742;85;29967;-60
2022/10/15 05:06:36;;;;;;;53.10;31.93;;;;;;;9.99;83.94;99793.48;2045198;86;31626;-64
2022/10/15 05:09:37;;;;;;;52.73;33.53;;;;;;;10.00;83.91;99798.77;2046084;86;33457;-68
2022/10/15 05:12:40;;;;;;;53.58;32.95;;;;;;;10.03;83.86;99797.23;2039744;85;28192;-73
2022/10/15 05:15:41;;;;;;;51.90;31.80;;;;;;;10.07;83.95;99798.41;2040376;85;27957;-73
2022/10/15 05:18:46;;;;;;;50.35;32.38;;;;;;;10.09;83.90;99796.05;2056651;85;28856;-74
2022/10/15 05:21:47;;;;;;;52.85;32.05;;;;;;;10.12;83.90;99801.20;2050630;85;31099;-73
2022/10/15 05:24:49;;;;;;;50.12;32.05;;;;;;;10.15;83.86;99798.86;2042183;86;33958;-74
2022/10/15 05:28:02;;;;;;;51.58;31.10;;;;;;;10.18;83.81;99799.99;2041364;85;29150;-76
2022/10/15 05:31:12;;;;;;;49.73;31.17;;;;;;;10.19;83.82;99801.72;2010046;85;27716;-71
2022/10/15 05:34:14;;;;;;;49.53;30.37;;;;;;;10.23;83.84;99791.73;2049840;85;28660;-70
2022/10/15 05:37:15;;;;;;;54.23;30.10;;;;;;;10.25;83.90;99783.14;2066074;85;31385;-71
2022/10/15 05:40:16;;;;;;;54.00;33.25;;;;;;;10.22;83.78;99772.11;2043621;86;32991;-71
2022/10/15 05:43:18;;;;;;;52.17;32.75;;;;;;;10.24;83.73;99766.20;2042834;86;30510;-68
2022/10/15 05:46:19;;;;;;;47.83;31.93;;;;;;;10.26;83.77;99766.13;2036198;86;27647;-68
2022/10/15 05:49:21;;;;;;;50.20;30.88;;;;;;;10.30;83.80;99764.98;2039648;86;29092;-69
2022/10/15 05:52:22;;;;;;;47.88;30.52;;;;;;;10.32;83.79;99757.27;2044835;86;31480;-69
2022/10/15 05:55:24;;;;;;;48.20;29.63;;;;;;;10.36;83.87;99762.42;2047969;86;33080;-70
2022/10/15 05:58:30;;;;;;;53.92;31.42;;;;;;;10.40;83.98;99766.23;2044666;85;29357;-68
2022/10/15 06:01:30;;;;;;;62.55;36.05;;;;;;;10.43;84.01;99766.03;2019769;85;27763;-68
2022/10/15 06:04:32;;;;;;;59.73;36.15;;;;;;;10.49;84.22;99771.53;2042111;86;28763;-67
2022/10/15 06:07:34;;;;;;;57.33;34.08;;;;;;;10.52;84.15;99766.47;2028120;86;31194;-69
2022/10/15 06:10:36;;;;;;;54.58;32.58;;;;;;;10.58;84.28;99776.34;2010803;85;34244;-71
2022/10/15 06:13:40;;;;;;;53.52;33.78;;;;;;;10.65;84.21;99779.52;2016031;86;29762;-69
2022/10/15 06:16:40;;;;;;;54.40;32.40;;;;;;;10.72;84.20;99786.72;2027291;86;27730;-71
2022/10/15 06:19:42;;;;;;;61.98;33.88;;;;;;;10.77;84.11;99789.51;2006624;85;27778;-71
2022/10/15 06:22:43;;;;;;;56.77;32.80;;;;;;;10.84;84.10;99795.86;2036591;85;32237;-69
2022/10/15 06:25:45;;;;;;;64.05;37.58;;;;;;;10.90;84.08;99789.66;2031325;86;33756;-69
2022/10/15 06:28:48;;;;;;;59.45;37.45;;;;;;;10.98;84.19;99789.69;2039347;86;29736;-72
2022/10/15 06:31:52;;;;;;;68.80;40.17;;;;;;;11.03;84.11;99791.59;2034612;86;27696;-69
2022/10/15 06:34:53;;;;;;;67.12;41.13;;;;;;;11.10;84.00;99795.16;2035758;86;29955;-69
2022/10/15 06:37:55;;;;;;;73.10;44.08;;;;;;;11.21;84.14;99797.69;2029547;86;31024;-68
2022/10/15 06:40:56;;;;;;;61.98;39.08;;;;;;;11.31;84.07;99797.50;2034380;86;33400;-69
2022/10/15 06:43:58;;;;;;;74.53;47.88;;;;;;;11.42;84.07;99800.03;2027672;86;30544;-69
2022/10/15 06:46:59;;;;;;;57.40;35.35;;;;;;;11.51;84.02;99808.84;2014132;87;27974;-67
2022/10/15 06:50:00;;;;;;;55.03;35.35;;;;;;;11.61;83.90;99810.47;2040717;86;28726;-69
2022/10/15 06:53:03;;;;;;;55.10;33.00;;;;;;;11.68;83.79;99814.48;2041281;85;32396;-69
2022/10/15 06:56:04;;;;;;;54.45;34.53;;;;;;;11.72;83.66;99816.52;2024082;86;33406;-68
2022/10/15 06:59:06;;;;;;;52.17;32.13;;;;;;;11.79;83.60;99817.84;2019862;86;29452;-69
2022/10/15 07:02:10;;;;;;;49.13;31.42;;;;;;;11.84;83.56;99817.94;2039627;86;27761;-68
2022/10/15 07:05:12;;;;;;;55.78;34.50;;;;;;;11.91;83.55;99817.56;2069340;85;29271;-72
2022/10/15 07:08:13;;;;;;;53.20;33.88;;;;;;;11.98;83.57;99823.81;2053195;85;31421;-72
2022/10/15 07:11:15;;;;;;;58.30;36.80;;;;;;;12.08;83.58;99820.56;2039967;86;33416;-65
2022/10/15 07:14:16;;;;;;;65.95;36.77;;;;;;;12.19;83.66;99819.85;2046936;85;29731;-67
2022/10/15 07:17:17;;;;;;;62.65;37.70;;;;;;;12.35;83.77;99827.80;2040025;86;27639;-64
2022/10/15 07:20:19;;;;;;;56.45;35.60;;;;;;;12.52;83.81;99822.19;2024656;85;29881;-66
2022/10/15 07:23:21;;;;;;;58.28;35.10;;;;;;;12.67;83.56;99820.80;2035668;86;31386;-64
2022/10/15 07:26:22;;;;;;;53.85;32.90;;;;;;;12.80;83.28;99824.38;2036990;86;33069;-69
2022/10/15 07:29:24;;;;;;;50.63;31.93;;;;;;;12.94;83.25;99838.72;2034145;86;29985;-69
2022/10/15 07:32:25;;;;;;;51.33;31.87;;;;;;;13.11;83.25;99837.10;2046311;86;28367;-67
2022/10/15 07:35:27;;;;;;;53.90;33.08;;;;;;;13.28;83.12;99845.39;2070937;85;29073;-71
2022/10/15 07:38:29;;;;;;;55.20;33.38;;;;;;;13.41;82.76;99846.76;2062390;85;32363;-70
2022/10/15 07:41:30;;;;;;;54.90;34.55;;;;;;;13.56;82.77;99830.55;2063263;85;33267;-70
2022/10/15 07:44:32;;;;;;;54.53;34.65;;;;;;;13.74;82.63;99845.88;2058465;86;30205;-70
2022/10/15 07:47:34;;;;;;;49.08;33.78;;;;;;;13.89;82.36;99843.44;2060116;86;27744;-71
2022/10/15 07:50:38;;;;;;;47.65;30.88;;;;;;;14.05;82.10;99840.53;2061398;85;29293;-69
2022/10/15 07:53:39;;;;;;;49.13;33.63;;;;;;;14.20;81.81;99836.36;2066974;85;31443;-71
2022/10/15 07:56:41;;;;;;;49.33;32.85;;;;;;;14.34;81.54;99836.67;2032868;84;34189;-71
2022/10/15 07:59:42;;;;;;;48.20;31.57;;;;;;;14.50;81.41;99841.81;2048422;86;29518;-68
2022/10/15 08:02:44;;;;;;;46.90;30.80;;;;;;;14.69;80.99;99817.07;2059165;85;27653;-69
2022/10/15 08:05:45;;;;;;;48.40;32.00;;;;;;;14.69;80.99;99817.07;2043321;86;29870;-69
2022/10/15 08:08:47;;;;;;;46.35;31.27;;;;;;;14.96;80.67;99830.32;2080158;85;31432;-67
2022/10/15 08:11:48;;;;;;;47.13;32.03;;;;;;;15.11;80.73;99830.12;2053641;85;34227;-69
2022/10/15 08:14:49;;;;;;;49.48;31.87;;;;;;;15.27;80.43;99829.32;2062001;85;30485;-70
2022/10/15 08:17:51;;;;;;;66.02;46.02;;;;;;;15.40;80.27;99828.36;2048812;86;28332;-69
2022/10/15 08:20:52;;;;;;;46.68;32.60;;;;;;;15.54;80.06;99825.48;2058639;86;27786;-65
2022/10/15 08:23:53;;;;;;;42.25;29.10;;;;;;;15.70;80.04;99826.46;2058131;84;31803;-67
2022/10/15 08:26:57;;;;;;;42.25;30.20;;;;;;;15.88;79.70;99828.72;2031067;86;33419;-69
2022/10/15 08:29:59;;;;;;;43.70;30.67;;;;;;;16.05;79.42;99831.44;2057436;86;30559;-71
2022/10/15 08:33:00;;;;;;;44.48;31.23;;;;;;;16.23;79.26;99831.78;2055210;86;27725;-69
2022/10/15 08:36:04;;;;;;;43.00;30.40;;;;;;;16.39;79.12;99835.44;2050729;86;28960;-68
2022/10/15 08:39:08;;;;;;;43.40;30.95;;;;;;;16.56;79.00;99834.06;2052254;86;32349;-69
2022/10/15 08:42:23;;;;;;;38.30;28.50;;;;;;;16.70;78.58;99845.95;2063886;85;32953;-70
2022/10/15 08:45:33;;;;;;;42.13;28.70;;;;;;;16.83;78.07;99849.86;2059555;84;29385;-67
2022/10/15 08:48:39;;;;;;;40.33;29.75;;;;;;;16.96;77.76;99847.50;2024327;86;28018;-68
2022/10/15 08:51:52;;;;;;;39.95;29.10;;;;;;;17.08;77.56;99859.99;2036249;84;29552;-66
2022/10/15 08:54:54;;;;;;;38.17;29.05;;;;;;;17.12;76.67;99856.05;2065295;85;31098;-67
2022/10/15 08:58:16;;;;;;;41.45;29.32;;;;;;;17.11;76.42;99858.39;2064684;84;33191;-67
2022/10/15 09:01:38;;;;;;;44.13;31.50;;;;;;;17.12;76.09;99866.03;2050962;85;29752;-69
2022/10/15 09:05:00;;;;;;;44.30;31.52;;;;;;;17.10;76.25;99856.66;2039479;85;27940;-69
2022/10/15 09:08:19;;;;;;;44.15;30.75;;;;;;;17.12;76.20;99847.92;2026273;86;28841;-70
2022/10/15 09:11:43;;;;;;;42.60;30.27;;;;;;;17.09;76.08;99845.98;2013728;86;31831;-70
2022/10/15 09:14:46;;;;;;;44.20;33.33;;;;;;;17.09;76.12;99855.45;2020333;87;34369;-69
2022/10/15 09:17:51;;;;;;;49.20;35.80;;;;;;;17.06;75.89;99844.38;2035707;86;30713;-71
2022/10/15 09:20:53;;;;;;;40.50;30.45;;;;;;;16.96;75.60;99844.80;2062935;83;27815;-71
2022/10/15 09:23:59;;;;;;;41.45;30.30;;;;;;;16.97;76.13;99851.93;2025338;86;28755;-71
2022/10/15 09:27:06;;;;;;;37.88;29.42;;;;;;;16.97;76.16;99847.87;2093514;83;31298;-70
2022/10/15 09:30:32;;;;;;;42.38;31.00;;;;;;;16.97;75.71;99848.71;2070817;83;33793;-70
2022/10/15 09:33:48;;;;;;;37.78;28.70;;;;;;;16.94;75.88;99852.14;2066326;83;29725;-70
2022/10/15 09:36:57;;;;;;;46.33;32.80;;;;;;;16.92;75.61;99851.41;2055800;85;27641;-69
2022/10/15 09:40:27;;;;;;;46.45;31.65;;;;;;;16.92;75.96;99855.47;2061457;85;29395;-69
2022/10/15 09:43:34;;;;;;;43.55;31.85;;;;;;;16.90;75.73;99859.67;2013247;86;32555;-68
2022/10/15 09:46:46;;;;;;;47.45;33.42;;;;;;;16.89;75.86;99863.36;2032410;85;33035;-68
2022/10/15 09:49:48;;;;;;;54.75;36.68;;;;;;;16.86;75.96;99856.84;2027353;85;29373;-69
2022/10/15 09:53:14;;;;;;;52.30;34.73;;;;;;;16.83;76.00;99851.69;2026583;86;28452;-69
2022/10/15 09:56:23;;;;;;;62.20;41.95;;;;;;;16.83;75.94;99858.45;2055166;86;27776;-69
2022/10/15 09:59:25;;;;;;;49.55;34.45;;;;;;;16.84;76.12;99862.40;2053202;86;31474;-69
2022/10/15 10:02:27;;;;;;;44.35;31.93;;;;;;;16.85;76.19;99862.77;2024184;86;34178;-68
2022/10/15 10:05:33;;;;;;;49.80;34.13;;;;;;;16.84;76.03;99866.94;2062827;85;29386;-70
2022/10/15 10:08:42;;;;;;;49.80;35.05;;;;;;;16.81;76.10;99870.77;2062751;85;28036;-69
2022/10/15 10:12:01;;;;;;;43.15;27.52;;;;;;;16.84;76.24;99869.16;2061456;85;44411;-68
2022/10/15 10:15:11;;;;;;;41.48;25.92;;;;;;;16.85;76.40;99875.41;2060715;85;31160;-68
2022/10/15 10:18:24;;;;;;;24.85;21.57;;;;;;;16.94;76.64;99879.20;2045805;85;33076;-68
2022/10/15 10:21:32;;;;;;;29.67;21.52;;;;;;;16.98;76.45;99880.70;2062351;85;29436;-69
2022/10/15 10:24:34;;;;;;;27.13;20.27;;;;;;;16.99;76.36;99881.92;2047499;85;27792;-70
2022/10/15 10:27:35;;;;;;;27.90;21.12;;;;;;;17.05;76.23;99875.64;2028514;86;30801;-70
2022/10/15 10:30:51;;;;;;;24.65;19.20;;;;;;;17.08;76.04;99875.39;1985620;88;31306;-70
2022/10/15 10:33:53;;;;;;;23.92;19.45;;;;;;;17.11;76.01;99878.69;1991833;87;34183;-70
2022/10/15 10:36:55;;;;;;;23.02;17.40;;;;;;;17.17;76.00;99877.30;2016392;86;30063;-71
2022/10/15 10:39:59;;;;;;;21.48;18.10;;;;;;;17.21;75.52;99880.13;2026019;86;27701;-70
2022/10/15 10:43:12;;;;;;;23.10;18.17;;;;;;;17.26;75.58;99872.48;2019669;86;28801;-68
2022/10/15 10:46:18;;;;;;;26.62;19.07;;;;;;;17.27;75.09;99870.62;2053506;86;31055;-69
2022/10/15 10:49:32;;;;;;;22.75;18.52;;;;;;;17.33;75.21;99871.94;2053005;86;33528;-71
2022/10/15 10:52:37;;;;;;;24.65;18.92;;;;;;;17.37;75.00;99874.28;2055232;86;34592;-69
2022/10/15 10:55:39;;;;;;;26.48;20.32;;;;;;;17.40;74.75;99878.06;2056348;85;27853;-71
2022/10/15 10:58:42;;;;;;;22.35;18.98;;;;;;;17.47;74.97;99882.45;2037861;86;29500;-70
2022/10/15 11:01:44;;;;;;;23.75;19.98;;;;;;;17.48;74.52;99880.62;2054787;86;31965;-71
2022/10/15 11:04:45;;;;;;;26.75;19.65;;;;;;;17.52;74.31;99871.25;2031995;86;32972;-71
2022/10/15 11:07:46;;;;;;;25.12;19.60;;;;;;;17.50;74.10;99868.66;2054020;86;28821;-70
2022/10/15 11:10:53;;;;;;;23.05;19.30;;;;;;;17.55;74.22;99866.89;2032584;86;27802;-70
2022/10/15 11:14:21;;;;;;;23.95;19.42;;;;;;;17.60;74.26;99865.53;2060093;84;28691;-70
2022/10/15 11:17:45;;;;;;;24.30;18.70;;;;;;;17.71;73.72;99861.02;2038169;85;32308;-70
2022/10/15 11:21:10;;;;;;;23.18;19.12;;;;;;;17.75;73.41;99860.62;2034235;86;34868;-69
2022/10/15 11:24:27;;;;;;;;;;;;;;;17.88;73.40;99863.13;2060735;84;29568;-70
2022/10/15 11:27:46;;;;;;;24.10;18.07;;;;;;;18.04;73.36;99857.73;2033703;85;28387;-71
2022/10/15 11:31:06;;;;;;;22.75;18.45;;;;;;;18.19;73.35;99844.17;2067115;85;28717;-70
2022/10/15 11:34:41;;;;;;;23.98;19.42;;;;;;;18.38;73.26;99835.23;2054063;85;32668;-69
2022/10/15 11:38:22;;;;;;;22.42;17.55;;;;;;;18.57;73.04;99828.14;1969610;87;32827;-72
2022/10/15 11:41:35;;;;;;;23.35;18.82;;;;;;;18.70;72.03;99831.12;1923580;89;29557;-71
2022/10/15 11:45:00;;;;;;;25.15;18.55;;;;;;;18.74;71.24;99829.81;1956721;88;27852;-69
2022/10/15 11:48:24;;;;;;;15.00;12.53;;;;;;;18.75;71.37;99824.27;1987868;87;29870;-70
2022/10/15 11:51:52;;;;;;;23.27;17.52;;;;;;;18.83;70.71;99829.83;1989933;86;27754;-72
2022/10/15 11:55:20;;;;;;;22.07;17.10;;;;;;;18.84;70.79;99823.92;2009695;86;34521;-72
2022/10/15 11:58:40;;;;;;;22.20;16.90;;;;;;;18.94;70.38;99825.28;1998420;86;29428;-70
2022/10/15 12:01:49;;;;;;;19.82;17.20;;;;;;;19.04;70.21;99822.09;1948707;90;28207;-70
2022/10/15 12:04:58;;;;;;;20.62;17.45;;;;;;;19.05;70.24;99827.00;1949100;89;28733;-69
2022/10/15 12:08:19;;;;;;;20.52;16.95;;;;;;;19.04;69.93;99826.64;1912296;89;31184;-70
2022/10/15 12:11:44;;;;;;;20.10;17.82;;;;;;;19.00;69.46;99822.53;1936608;89;29779;-71
2022/10/15 12:15:33;;;;;;;21.15;16.82;;;;;;;19.02;69.70;99825.45;1938351;89;29433;-70
2022/10/15 12:19:22;;;;;;;22.85;18.57;;;;;;;19.06;69.20;99832.80;1968630;88;27931;-71
2022/10/15 12:22:40;;;;;;;20.30;17.32;;;;;;;19.05;69.06;99827.00;1975551;88;28777;-71
2022/10/15 12:25:45;;;;;;;22.32;17.95;;;;;;;19.00;68.98;99835.59;1981816;88;32290;-69
2022/10/15 12:28:55;;;;;;;24.57;17.87;;;;;;;18.96;68.89;99839.09;1985124;88;33715;-68
2022/10/15 12:31:58;;;;;;;21.97;18.40;;;;;;;18.97;68.80;99838.58;1992973;88;27945;-69
2022/10/15 12:35:04;;;;;;;24.18;20.72;;;;;;;18.94;68.66;99831.59;1985267;88;27799;-69
2022/10/15 12:38:17;;;;;;;27.75;20.25;;;;;;;18.97;68.61;99836.73;1981607;86;28681;-69
2022/10/15 12:41:40;;;;;;;29.35;18.87;;;;;;;19.05;68.65;99830.59;2046434;85;31017;-75
2022/10/15 12:44:48;;;;;;;22.30;18.85;;;;;;;19.09;68.07;99826.59;2047522;85;29842;-71
2022/10/15 12:47:54;;;;;;;24.50;19.75;;;;;;;19.10;67.97;99823.37;2044859;86;29344;-71
2022/10/15 12:51:27;;;;;;;20.77;18.57;;;;;;;19.16;68.12;99821.94;2011650;86;27874;-70
2022/10/15 12:54:41;;;;;;;36.40;29.63;;;;;;;19.18;67.77;99822.17;2058015;85;28122;-70
2022/10/15 12:57:50;;;;;;;26.27;20.55;;;;;;;19.16;67.87;99820.58;2024199;86;31053;-69
2022/10/15 13:00:52;;;;;;;27.60;20.65;;;;;;;19.18;67.80;99825.36;2017030;87;33047;-68
2022/10/15 13:03:56;;;;;;;26.77;21.05;;;;;;;19.18;66.83;99822.17;2029061;85;30044;-68
2022/10/15 13:07:03;;;;;;;27.20;21.27;;;;;;;19.13;66.98;99822.58;2058714;85;27331;-69
2022/10/15 13:10:31;;;;;;;24.20;20.72;;;;;;;19.17;67.58;99827.72;2030528;86;28688;-73
2022/10/15 13:13:34;;;;;;;25.88;20.55;;;;;;;19.20;67.43;99826.92;2041459;86;29142;-69
2022/10/15 13:16:43;;;;;;;26.00;21.40;;;;;;;19.22;67.08;99822.21;2034535;85;33686;-72
2022/10/15 13:19:57;;;;;;;24.12;21.05;;;;;;;19.23;66.97;99825.28;1954961;90;28027;-68
2022/10/15 13:23:24;;;;;;;25.35;21.12;;;;;;;19.25;66.87;99828.72;1958912;89;27805;-67
2022/10/15 13:26:26;;;;;;;27.15;20.60;;;;;;;19.25;66.70;99827.36;1933855;91;30004;-69
2022/10/15 13:29:28;;;;;;;24.12;20.72;;;;;;;19.24;66.55;99821.57;1956708;90;32350;-69
2022/10/15 13:32:36;;;;;;;25.35;22.07;;;;;;;19.23;65.92;99822.57;1953278;90;29847;-70
2022/10/15 13:35:38;;;;;;;29.77;22.70;;;;;;;19.18;65.76;99821.30;1955499;90;29370;-71
2022/10/15 13:38:40;;;;;;;26.55;22.65;;;;;;;19.12;65.80;99829.00;1955497;90;27866;-71
2022/10/15 13:41:41;;;;;;;26.55;22.93;;;;;;;19.05;65.78;99840.09;1919493;91;28095;-73
2022/10/15 13:45:02;;;;;;;27.62;23.18;;;;;;;19.05;65.92;99833.31;1922488;91;32323;-69
2022/10/15 13:48:10;;;;;;;26.20;22.62;;;;;;;19.00;65.75;99841.02;1915100;90;33750;-69
2022/10/15 13:51:12;;;;;;;33.88;27.98;;;;;;;18.92;65.36;99839.49;1938107;90;29549;-71
2022/10/15 13:54:18;;;;;;;30.97;26.42;;;;;;;18.87;65.30;99840.41;1952995;89;27726;-72
2022/10/15 13:57:21;;;;;;;32.90;24.43;;;;;;;18.81;65.58;99841.83;1963211;89;30035;-68
2022/10/15 14:00:27;;;;;;;29.35;24.55;;;;;;;18.77;65.66;99842.63;1961048;89;32228;-69
2022/10/15 14:03:34;;;;;;;27.15;24.02;;;;;;;18.75;65.65;99844.61;1963085;89;33014;-67
2022/10/15 14:06:40;;;;;;;29.70;25.23;;;;;;;18.73;65.74;99854.75;1940335;89;29417;-72
2022/10/15 14:09:43;;;;;;;28.90;24.20;;;;;;;18.66;65.61;99853.09;1959529;90;28145;-71
2022/10/15 14:12:50;;;;;;;31.17;25.43;;;;;;;18.58;65.72;99850.20;1925446;90;28723;-67
2022/10/15 14:15:54;;;;;;;29.60;24.05;;;;;;;18.51;65.80;99855.34;2000399;86;32032;-69
2022/10/15 14:19:06;;;;;;;37.55;28.92;;;;;;;18.43;65.92;99861.97;2028018;85;32650;-72
2022/10/15 14:22:14;;;;;;;34.10;26.90;;;;;;;18.34;65.74;99861.42;2045475;86;29824;-70